createdAt,value
2018-01-11T00:00:49.705Z,17.50
2018-01-11T00:01:49.689Z,18.30
2018-01-11T00:02:49.692Z,17.90
2018-01-11T00:03:49.647Z,16.60
2018-01-11T00:04:49.625Z,14.60
2018-01-11T00:05:49.619Z,14.90
2018-01-11T00:06:49.588Z,15.90
2018-01-11T00:07:49.569Z,15.80
2018-01-11T00:08:49.547Z,15.60
2018-01-11T00:09:49.540Z,16.40
2018-01-11T00:10:49.509Z,16.10
2018-01-11T00:11:49.522Z,18.50
2018-01-11T00:12:49.479Z,16.20
2018-01-11T00:13:49.452Z,16.90
2018-01-11T00:14:49.445Z,16.60
2018-01-11T00:15:49.425Z,16.80
2018-01-11T00:16:49.398Z,17.10
2018-01-11T00:17:49.375Z,18.20
2018-01-11T00:18:49.358Z,16.00
2018-01-11T00:19:49.335Z,17.10
2018-01-11T00:20:49.317Z,17.50
2018-01-11T00:21:49.296Z,17.50
2018-01-11T00:22:49.281Z,16.20
2018-01-11T00:23:49.262Z,19.20
2018-01-11T00:24:49.249Z,16.50
2018-01-11T00:25:49.222Z,14.70
2018-01-11T00:26:49.204Z,17.50
2018-01-11T00:27:49.181Z,16.30
2018-01-11T00:28:49.160Z,17.30
2018-01-11T00:29:49.148Z,16.50
2018-01-11T00:30:49.125Z,20.50
2018-01-11T00:31:49.112Z,17.10
2018-01-11T00:32:49.082Z,16.00
2018-01-11T00:33:49.074Z,15.80
2018-01-11T00:34:49.043Z,17.00
2018-01-11T00:35:49.028Z,18.00
2018-01-11T00:36:49.005Z,15.40
2018-01-11T00:37:48.988Z,17.40
2018-01-11T00:38:48.964Z,17.00
2018-01-11T00:39:48.949Z,19.30
2018-01-11T00:40:48.924Z,19.90
2018-01-11T00:41:48.904Z,17.40
2018-01-11T00:42:48.893Z,16.20
2018-01-11T00:43:48.869Z,16.50
2018-01-11T00:44:48.848Z,19.10
2018-01-11T00:45:48.828Z,16.90
2018-01-11T00:46:48.811Z,19.30
2018-01-11T00:47:48.788Z,16.30
2018-01-11T00:48:48.767Z,16.60
2018-01-11T00:49:48.749Z,15.90
2018-01-11T00:50:48.738Z,19.00
2018-01-11T00:51:48.713Z,18.50
2018-01-11T00:52:48.697Z,17.20
2018-01-11T00:53:48.680Z,16.10
2018-01-11T00:54:48.658Z,18.00
2018-01-11T00:55:48.639Z,16.80
2018-01-11T00:56:48.617Z,19.30
2018-01-11T00:57:48.599Z,17.00
2018-01-11T00:58:48.578Z,16.80
2018-01-11T00:59:48.554Z,18.50
2018-01-11T01:00:48.540Z,16.40
2018-01-11T01:01:48.568Z,17.70
2018-01-11T01:02:48.500Z,19.70
2018-01-11T01:03:48.477Z,16.90
2018-01-11T01:04:48.462Z,17.20
2018-01-11T01:05:48.450Z,19.00
2018-01-11T01:06:48.429Z,16.90
2018-01-11T01:07:48.399Z,16.10
2018-01-11T01:08:48.380Z,16.90
2018-01-11T01:09:48.365Z,19.50
2018-01-11T01:10:48.342Z,16.80
2018-01-11T01:11:48.322Z,20.00
2018-01-11T01:12:48.302Z,16.90
2018-01-11T01:13:48.290Z,19.20
2018-01-11T01:14:48.268Z,19.30
2018-01-11T01:15:48.250Z,19.00
2018-01-11T01:16:48.229Z,16.70
2018-01-11T01:17:48.204Z,17.00
2018-01-11T01:18:48.188Z,19.00
2018-01-11T01:19:48.175Z,18.20
2018-01-11T01:20:48.148Z,17.20
2018-01-11T01:21:48.129Z,17.50
2018-01-11T01:22:48.110Z,20.00
2018-01-11T01:23:48.093Z,17.80
2018-01-11T01:24:48.072Z,18.10
2018-01-11T01:25:48.062Z,16.60
2018-01-11T01:26:48.037Z,16.80
2018-01-11T01:27:48.018Z,17.00
2018-01-11T01:28:47.997Z,17.90
2018-01-11T01:29:47.977Z,18.50
2018-01-11T01:30:47.957Z,20.70
2018-01-11T01:31:47.943Z,19.10
2018-01-11T01:32:47.918Z,20.50
2018-01-11T01:33:47.901Z,20.70
2018-01-11T01:34:47.878Z,18.70
2018-01-11T01:35:47.856Z,21.40
2018-01-11T01:36:47.850Z,23.10
2018-01-11T01:37:47.833Z,19.00
2018-01-11T01:38:47.798Z,19.60
2018-01-11T01:39:47.781Z,20.10
2018-01-11T01:40:47.763Z,21.90
2018-01-11T01:41:47.739Z,22.10
2018-01-11T01:42:47.718Z,24.10
2018-01-11T01:43:47.699Z,20.60
2018-01-11T01:44:47.685Z,21.80
2018-01-11T01:45:47.658Z,22.70
2018-01-11T01:46:47.638Z,23.70
2018-01-11T01:47:47.621Z,23.80
2018-01-11T01:48:47.599Z,31.00
2018-01-11T01:49:47.580Z,29.00
2018-01-11T01:50:47.562Z,25.00
2018-01-11T01:51:47.547Z,22.50
2018-01-11T01:52:47.518Z,20.60
2018-01-11T01:53:47.507Z,20.10
2018-01-11T01:54:47.482Z,21.70
2018-01-11T01:55:47.464Z,20.90
2018-01-11T01:56:47.444Z,21.20
2018-01-11T01:57:47.422Z,26.80
2018-01-11T01:58:47.404Z,35.20
2018-01-11T01:59:47.384Z,39.80
2018-01-11T02:00:47.368Z,41.60
2018-01-11T02:01:47.344Z,37.10
2018-01-11T02:02:47.325Z,39.80
2018-01-11T02:03:47.301Z,43.60
2018-01-11T02:04:47.289Z,39.00
2018-01-11T02:05:47.266Z,40.70
2018-01-11T02:06:47.244Z,34.90
2018-01-11T02:07:47.229Z,36.90
2018-01-11T02:08:47.204Z,33.40
2018-01-11T02:09:47.194Z,30.90
2018-01-11T02:10:47.165Z,30.10
2018-01-11T02:11:47.149Z,28.80
2018-01-11T02:12:47.125Z,30.60
2018-01-11T02:13:47.108Z,29.00
2018-01-11T02:14:47.089Z,23.20
2018-01-11T02:15:47.067Z,24.50
2018-01-11T02:16:47.046Z,24.00
2018-01-11T02:17:47.030Z,25.30
2018-01-11T02:18:47.013Z,21.70
2018-01-11T02:19:46.989Z,22.40
2018-01-11T02:20:46.968Z,20.90
2018-01-11T02:21:46.948Z,21.10
2018-01-11T02:22:46.930Z,23.40
2018-01-11T02:23:46.909Z,21.30
2018-01-11T02:24:46.902Z,22.40
2018-01-11T02:25:46.872Z,21.80
2018-01-11T02:26:46.852Z,24.00
2018-01-11T02:27:46.840Z,23.30
2018-01-11T02:28:46.810Z,25.00
2018-01-11T02:29:46.800Z,23.80
2018-01-11T02:30:46.770Z,21.80
2018-01-11T02:31:47.010Z,23.80
2018-01-11T02:32:46.739Z,22.90
2018-01-11T02:33:46.716Z,20.90
2018-01-11T02:34:46.695Z,21.90
2018-01-11T02:35:46.674Z,22.60
2018-01-11T02:36:46.660Z,22.70
2018-01-11T02:37:46.637Z,21.90
2018-01-11T02:38:46.621Z,20.00
2018-01-11T02:39:46.596Z,21.70
2018-01-11T02:40:46.579Z,22.70
2018-01-11T02:41:46.560Z,21.90
2018-01-11T02:42:46.538Z,20.30
2018-01-11T02:43:46.522Z,20.40
2018-01-11T02:44:46.500Z,20.70
2018-01-11T02:45:46.480Z,22.80
2018-01-11T02:46:46.470Z,19.90
2018-01-11T02:47:46.439Z,20.30
2018-01-11T02:48:46.482Z,21.40
2018-01-11T02:49:46.399Z,20.00
2018-01-11T02:50:46.389Z,20.70
2018-01-11T02:51:46.360Z,20.80
2018-01-11T02:52:46.339Z,21.00
2018-01-11T02:53:46.329Z,21.40
2018-01-11T02:54:46.304Z,22.40
2018-01-11T02:55:46.285Z,20.70
2018-01-11T02:56:46.269Z,21.20
2018-01-11T02:57:46.251Z,23.20
2018-01-11T02:58:46.227Z,20.00
2018-01-11T02:59:46.207Z,21.10
2018-01-11T03:00:46.189Z,20.40
2018-01-11T03:01:46.164Z,21.60
2018-01-11T03:02:46.144Z,21.10
2018-01-11T03:03:46.128Z,19.50
2018-01-11T03:04:46.111Z,19.90
2018-01-11T03:05:46.084Z,19.60
2018-01-11T03:06:46.070Z,20.80
2018-01-11T03:07:46.049Z,21.60
2018-01-11T03:08:46.033Z,19.50
2018-01-11T03:09:46.017Z,22.10
2018-01-11T03:10:45.990Z,20.20
2018-01-11T03:11:45.969Z,22.10
2018-01-11T03:12:45.948Z,21.70
2018-01-11T03:13:45.930Z,20.90
2018-01-11T03:14:45.908Z,21.20
2018-01-11T03:15:45.890Z,22.00
2018-01-11T03:16:45.872Z,23.40
2018-01-11T03:17:45.849Z,22.10
2018-01-11T03:18:45.829Z,24.90
2018-01-11T03:19:45.810Z,22.40
2018-01-11T03:20:45.791Z,20.50
2018-01-11T03:21:45.769Z,22.20
2018-01-11T03:22:45.749Z,22.70
2018-01-11T03:23:45.735Z,22.40
2018-01-11T03:24:45.722Z,20.50
2018-01-11T03:25:45.698Z,22.70
2018-01-11T03:26:45.680Z,23.30
2018-01-11T03:27:45.651Z,20.40
2018-01-11T03:28:45.633Z,21.50
2018-01-11T03:29:45.617Z,24.60
2018-01-11T03:30:45.612Z,21.90
2018-01-11T03:31:45.581Z,22.70
2018-01-11T03:32:45.562Z,26.80
2018-01-11T03:33:45.541Z,22.90
2018-01-11T03:34:45.528Z,21.70
2018-01-11T03:35:45.497Z,22.80
2018-01-11T03:36:45.475Z,20.90
2018-01-11T03:37:45.462Z,25.90
2018-01-11T03:38:45.439Z,23.70
2018-01-11T03:39:45.420Z,22.30
2018-01-11T03:40:45.397Z,22.60
2018-01-11T03:41:45.385Z,22.80
2018-01-11T03:42:45.363Z,21.50
2018-01-11T03:43:45.339Z,25.30
2018-01-11T03:44:45.320Z,22.00
2018-01-11T03:45:45.297Z,20.80
2018-01-11T03:46:45.279Z,21.60
2018-01-11T03:47:45.260Z,22.50
2018-01-11T03:48:45.238Z,23.30
2018-01-11T03:49:45.220Z,22.30
2018-01-11T03:50:45.200Z,21.00
2018-01-11T03:51:45.179Z,26.80
2018-01-11T03:52:45.160Z,21.40
2018-01-11T03:53:45.139Z,21.90
2018-01-11T03:54:45.130Z,23.20
2018-01-11T03:55:45.105Z,22.30
2018-01-11T03:56:45.083Z,21.70
2018-01-11T03:57:45.070Z,23.50
2018-01-11T03:58:45.048Z,24.50
2018-01-11T03:59:45.025Z,23.10
2018-01-11T04:00:45.007Z,21.30
2018-01-11T04:01:44.993Z,23.20
2018-01-11T04:02:44.989Z,21.60
2018-01-11T04:03:44.942Z,23.80
2018-01-11T04:04:44.935Z,21.90
2018-01-11T04:05:44.904Z,22.60
2018-01-11T04:06:44.890Z,25.50
2018-01-11T04:07:44.867Z,21.20
2018-01-11T04:08:44.851Z,24.70
2018-01-11T04:09:44.826Z,21.30
2018-01-11T04:10:44.810Z,22.20
2018-01-11T04:11:44.786Z,20.90
2018-01-11T04:12:44.773Z,20.80
2018-01-11T04:13:44.747Z,24.70
2018-01-11T04:14:44.730Z,23.80
2018-01-11T04:15:44.716Z,22.20
2018-01-11T04:16:44.689Z,22.60
2018-01-11T04:17:44.669Z,21.80
2018-01-11T04:18:44.649Z,23.00
2018-01-11T04:19:44.636Z,24.70
2018-01-11T04:20:44.610Z,22.40
2018-01-11T04:21:44.590Z,22.20
2018-01-11T04:22:44.583Z,21.30
2018-01-11T04:23:44.557Z,22.70
2018-01-11T04:24:44.531Z,23.60
2018-01-11T04:25:44.515Z,23.50
2018-01-11T04:26:44.494Z,23.00
2018-01-11T04:27:44.480Z,24.60
2018-01-11T04:28:44.457Z,24.30
2018-01-11T04:29:44.445Z,20.90
2018-01-11T04:30:44.417Z,22.70
2018-01-11T04:31:44.396Z,21.20
2018-01-11T04:32:44.377Z,22.70
2018-01-11T04:33:44.358Z,22.30
2018-01-11T04:34:44.339Z,24.00
2018-01-11T04:35:44.320Z,21.50
2018-01-11T04:36:44.298Z,24.80
2018-01-11T04:37:44.281Z,22.70
2018-01-11T04:38:44.259Z,22.60
2018-01-11T04:39:44.241Z,22.80
2018-01-11T04:40:44.220Z,22.50
2018-01-11T04:41:44.201Z,21.60
2018-01-11T04:42:44.180Z,23.00
2018-01-11T04:43:44.159Z,22.70
2018-01-11T04:44:44.140Z,26.10
2018-01-11T04:45:44.124Z,22.90
2018-01-11T04:46:44.157Z,23.40
2018-01-11T04:47:44.085Z,27.40
2018-01-11T04:48:44.069Z,23.50
2018-01-11T04:49:44.049Z,23.70
2018-01-11T04:50:44.077Z,22.10
2018-01-11T04:51:44.006Z,23.40
2018-01-11T04:52:44.006Z,23.60
2018-01-11T04:53:43.964Z,27.10
2018-01-11T04:54:43.950Z,22.20
2018-01-11T04:55:43.927Z,24.40
2018-01-11T04:56:43.960Z,26.20
2018-01-11T04:57:43.888Z,24.90
2018-01-11T04:58:43.878Z,24.60
2018-01-11T04:59:43.849Z,22.90
2018-01-11T05:00:43.829Z,22.40
2018-01-11T05:01:43.810Z,22.30
2018-01-11T05:02:43.840Z,24.80
2018-01-11T05:03:43.770Z,24.30
2018-01-11T05:04:43.750Z,27.80
2018-01-11T05:05:43.730Z,23.30
2018-01-11T05:06:43.758Z,28.20
2018-01-11T05:07:43.692Z,23.00
2018-01-11T05:08:43.725Z,25.20
2018-01-11T05:09:43.650Z,22.60
2018-01-11T05:10:43.632Z,26.90
2018-01-11T05:11:43.609Z,23.50
2018-01-11T05:12:43.596Z,23.50
2018-01-11T05:13:43.580Z,25.60
2018-01-11T05:14:43.555Z,28.10
2018-01-11T05:15:43.533Z,26.40
2018-01-11T05:16:43.520Z,25.20
2018-01-11T05:17:43.495Z,24.10
2018-01-11T05:18:43.472Z,22.40
2018-01-11T05:19:43.452Z,25.30
2018-01-11T05:20:43.432Z,24.40
2018-01-11T05:21:43.420Z,28.00
2018-01-11T05:22:43.400Z,23.70
2018-01-11T05:23:43.376Z,24.10
2018-01-11T05:24:43.360Z,26.50
2018-01-11T05:25:43.340Z,23.60
2018-01-11T05:26:43.315Z,26.20
2018-01-11T05:27:43.302Z,27.70
2018-01-11T05:28:43.282Z,23.40
2018-01-11T05:29:43.260Z,25.20
2018-01-11T05:30:43.237Z,22.50
2018-01-11T05:31:43.232Z,23.20
2018-01-11T05:32:43.197Z,24.50
2018-01-11T05:33:43.181Z,23.50
2018-01-11T05:34:43.162Z,23.40
2018-01-11T05:35:43.140Z,23.60
2018-01-11T05:36:43.121Z,23.30
2018-01-11T05:37:43.110Z,25.50
2018-01-11T05:38:43.083Z,24.60
2018-01-11T05:39:43.062Z,22.90
2018-01-11T05:40:43.041Z,25.10
2018-01-11T05:41:43.022Z,24.10
2018-01-11T05:42:43.001Z,25.50
2018-01-11T05:43:42.982Z,22.50
2018-01-11T05:44:42.962Z,24.50
2018-01-11T05:45:42.940Z,23.40
2018-01-11T05:46:42.922Z,24.70
2018-01-11T05:47:42.928Z,23.80
2018-01-11T05:48:42.897Z,25.60
2018-01-11T05:49:42.864Z,23.00
2018-01-11T05:50:42.845Z,25.70
2018-01-11T05:51:42.820Z,23.80
2018-01-11T05:52:42.810Z,26.50
2018-01-11T05:53:42.793Z,25.50
2018-01-11T05:54:42.763Z,24.70
2018-01-11T05:55:42.750Z,24.20
2018-01-11T05:56:42.723Z,26.70
2018-01-11T05:57:42.720Z,25.40
2018-01-11T05:58:42.688Z,26.10
2018-01-11T05:59:42.668Z,26.30
2018-01-11T06:00:42.652Z,25.90
2018-01-11T06:01:42.632Z,26.30
2018-01-11T06:02:42.661Z,25.90
2018-01-11T06:03:42.584Z,26.90
2018-01-11T06:04:42.571Z,25.30
2018-01-11T06:05:42.554Z,26.10
2018-01-11T06:06:42.530Z,27.50
2018-01-11T06:07:42.512Z,26.80
2018-01-11T06:08:42.496Z,27.50
2018-01-11T06:09:42.464Z,29.70
2018-01-11T06:10:42.511Z,26.50
2018-01-11T06:11:42.427Z,27.50
2018-01-11T06:12:42.507Z,26.40
2018-01-11T06:13:42.391Z,27.60
2018-01-11T06:14:42.425Z,25.80
2018-01-11T06:15:42.353Z,27.20
2018-01-11T06:16:42.380Z,25.30
2018-01-11T06:17:42.309Z,29.80
2018-01-11T06:18:42.296Z,26.00
2018-01-11T06:19:42.268Z,27.40
2018-01-11T06:20:42.277Z,26.80
2018-01-11T06:21:42.228Z,26.10
2018-01-11T06:22:42.210Z,28.20
2018-01-11T06:23:42.190Z,24.60
2018-01-11T06:24:42.190Z,25.40
2018-01-11T06:25:42.145Z,25.70
2018-01-11T06:26:42.130Z,27.70
2018-01-11T06:27:42.112Z,25.60
2018-01-11T06:28:42.191Z,27.10
2018-01-11T06:29:42.072Z,26.70
2018-01-11T06:30:42.149Z,27.00
2018-01-11T06:31:42.040Z,28.30
2018-01-11T06:32:42.022Z,26.30
2018-01-11T06:33:41.990Z,27.00
2018-01-11T06:34:42.023Z,29.20
2018-01-11T06:35:41.959Z,25.00
2018-01-11T06:36:41.933Z,28.40
2018-01-11T06:37:41.912Z,29.60
2018-01-11T06:38:41.891Z,27.50
2018-01-11T06:39:41.876Z,27.30
2018-01-11T06:40:41.902Z,28.50
2018-01-11T06:41:41.830Z,26.00
2018-01-11T06:42:41.810Z,29.40
2018-01-11T06:43:41.793Z,26.80
2018-01-11T06:44:41.770Z,30.30
2018-01-11T06:45:41.754Z,26.20
2018-01-11T06:46:41.737Z,28.40
2018-01-11T06:47:41.713Z,27.90
2018-01-11T06:48:41.694Z,28.60
2018-01-11T06:49:41.681Z,29.40
2018-01-11T06:50:41.662Z,29.10
2018-01-11T06:51:41.641Z,27.80
2018-01-11T06:52:41.610Z,27.90
2018-01-11T06:53:41.598Z,30.40
2018-01-11T06:54:41.578Z,28.60
2018-01-11T06:55:41.802Z,32.90
2018-01-11T06:56:41.537Z,28.30
2018-01-11T06:57:41.516Z,27.90
2018-01-11T06:58:41.501Z,27.20
2018-01-11T06:59:41.481Z,29.20
2018-01-11T07:00:41.460Z,27.80
2018-01-11T07:01:41.440Z,27.60
2018-01-11T07:02:41.421Z,28.50
2018-01-11T07:03:41.413Z,29.10
2018-01-11T07:04:41.384Z,28.60
2018-01-11T07:05:41.357Z,28.10
2018-01-11T07:06:41.342Z,28.30
2018-01-11T07:07:41.322Z,28.40
2018-01-11T07:08:41.298Z,30.00
2018-01-11T07:09:41.280Z,30.60
2018-01-11T07:10:41.269Z,31.00
2018-01-11T07:11:41.240Z,30.50
2018-01-11T07:12:41.222Z,29.20
2018-01-11T07:13:41.201Z,28.80
2018-01-11T07:14:41.180Z,27.40
2018-01-11T07:15:41.169Z,28.60
2018-01-11T07:16:41.149Z,32.20
2018-01-11T07:17:41.120Z,31.00
2018-01-11T07:18:41.101Z,29.70
2018-01-11T07:19:41.081Z,30.70
2018-01-11T07:20:41.068Z,32.60
2018-01-11T07:21:41.044Z,29.20
2018-01-11T07:22:41.024Z,28.60
2018-01-11T07:23:41.001Z,29.00
2018-01-11T07:24:41.089Z,33.40
2018-01-11T07:25:40.970Z,27.90
2018-01-11T07:26:40.948Z,31.70
2018-01-11T07:27:40.930Z,32.80
2018-01-11T07:28:41.024Z,31.50
2018-01-11T07:29:40.886Z,32.70
2018-01-11T07:30:41.018Z,30.40
2018-01-11T07:31:40.850Z,29.40
2018-01-11T07:32:40.834Z,29.90
2018-01-11T07:33:40.812Z,30.00
2018-01-11T07:34:40.851Z,28.40
2018-01-11T07:35:40.784Z,33.40
2018-01-11T07:36:40.751Z,29.50
2018-01-11T07:37:40.728Z,32.40
2018-01-11T07:38:40.762Z,29.30
2018-01-11T07:39:40.692Z,28.40
2018-01-11T07:40:40.822Z,29.80
2018-01-11T07:41:40.656Z,28.00
2018-01-11T07:42:40.634Z,28.20
2018-01-11T07:43:40.614Z,29.50
2018-01-11T07:44:40.690Z,31.80
2018-01-11T07:45:40.570Z,28.70
2018-01-11T07:46:40.562Z,30.50
2018-01-11T07:47:40.529Z,28.50
2018-01-11T07:48:40.511Z,30.30
2018-01-11T07:49:40.492Z,29.80
2018-01-11T07:50:40.470Z,29.70
2018-01-11T07:51:40.453Z,31.10
2018-01-11T07:52:40.440Z,30.60
2018-01-11T07:53:40.414Z,28.40
2018-01-11T07:54:40.393Z,33.30
2018-01-11T07:55:40.383Z,34.10
2018-01-11T07:56:40.367Z,30.80
2018-01-11T07:57:40.337Z,29.90
2018-01-11T07:58:40.403Z,30.20
2018-01-11T07:59:40.300Z,30.10
2018-01-11T08:00:40.425Z,30.80
2018-01-11T08:01:40.254Z,32.80
2018-01-11T08:02:40.241Z,30.20
2018-01-11T08:03:40.216Z,33.30
2018-01-11T08:04:40.225Z,31.30
2018-01-11T08:05:40.181Z,31.70
2018-01-11T08:06:40.162Z,30.90
2018-01-11T08:07:40.142Z,31.10
2018-01-11T08:08:40.125Z,32.80
2018-01-11T08:09:40.100Z,31.20
2018-01-11T08:10:40.081Z,35.30
2018-01-11T08:11:40.063Z,31.10
2018-01-11T08:12:40.039Z,30.30
2018-01-11T08:13:40.021Z,29.50
2018-01-11T08:14:40.004Z,29.50
2018-01-11T08:15:39.981Z,29.30
2018-01-11T08:16:39.968Z,34.50
2018-01-11T08:17:39.955Z,31.50
2018-01-11T08:18:39.930Z,30.90
2018-01-11T08:19:39.906Z,31.60
2018-01-11T08:20:39.886Z,29.90
2018-01-11T08:21:39.865Z,29.30
2018-01-11T08:22:39.850Z,30.40
2018-01-11T08:23:39.832Z,35.20
2018-01-11T08:24:39.816Z,30.30
2018-01-11T08:25:39.790Z,30.00
2018-01-11T08:26:39.769Z,32.90
2018-01-11T08:27:39.749Z,31.50
2018-01-11T08:28:39.733Z,30.60
2018-01-11T08:29:39.720Z,29.70
2018-01-11T08:30:39.697Z,29.20
2018-01-11T08:31:39.674Z,30.10
2018-01-11T08:32:39.655Z,30.30
2018-01-11T08:33:39.641Z,29.50
2018-01-11T08:34:39.624Z,32.00
2018-01-11T08:35:39.600Z,35.20
2018-01-11T08:36:39.582Z,31.00
2018-01-11T08:37:39.563Z,33.50
2018-01-11T08:38:39.544Z,32.20
2018-01-11T08:39:39.531Z,30.40
2018-01-11T08:40:39.504Z,30.50
2018-01-11T08:41:39.484Z,33.90
2018-01-11T08:42:39.466Z,31.40
2018-01-11T08:43:39.450Z,32.00
2018-01-11T08:44:39.427Z,31.90
2018-01-11T08:45:39.407Z,30.10
2018-01-11T08:46:39.392Z,30.50
2018-01-11T08:47:39.367Z,29.70
2018-01-11T08:48:39.357Z,30.00
2018-01-11T08:49:39.332Z,30.10
2018-01-11T08:50:39.319Z,29.30
2018-01-11T08:51:39.294Z,29.30
2018-01-11T08:52:39.423Z,29.70
2018-01-11T08:53:39.278Z,30.70
2018-01-11T08:54:39.248Z,30.80
2018-01-11T08:55:39.228Z,29.40
2018-01-11T08:56:39.213Z,28.90
2018-01-11T08:57:39.185Z,28.50
2018-01-11T08:58:39.216Z,28.60
2018-01-11T08:59:39.151Z,31.40
2018-01-11T09:00:39.130Z,30.40
2018-01-11T09:01:39.121Z,30.60
2018-01-11T09:02:39.097Z,28.30
2018-01-11T09:03:39.072Z,29.50
2018-01-11T09:04:39.065Z,28.30
2018-01-11T09:05:39.043Z,32.00
2018-01-11T09:06:39.070Z,30.70
2018-01-11T09:07:39.001Z,29.40
2018-01-11T09:08:38.984Z,29.00
2018-01-11T09:09:38.959Z,30.70
2018-01-11T09:10:38.942Z,30.10
2018-01-11T09:11:38.921Z,28.60
2018-01-11T09:12:38.992Z,29.40
2018-01-11T09:13:38.892Z,28.20
2018-01-11T09:14:38.878Z,29.20
2018-01-11T09:15:38.850Z,28.20
2018-01-11T09:16:38.984Z,31.90
2018-01-11T09:17:38.815Z,28.40
2018-01-11T09:18:38.798Z,31.00
2018-01-11T09:19:38.787Z,30.80
2018-01-11T09:20:38.763Z,28.40
2018-01-11T09:21:38.742Z,30.00
2018-01-11T09:22:38.780Z,29.10
2018-01-11T09:23:38.707Z,29.80
2018-01-11T09:24:38.690Z,30.30
2018-01-11T09:25:38.670Z,28.90
2018-01-11T09:26:38.819Z,28.90
2018-01-11T09:27:38.633Z,27.80
2018-01-11T09:28:38.620Z,27.20
2018-01-11T09:29:38.595Z,28.80
2018-01-11T09:30:38.581Z,28.30
2018-01-11T09:31:38.559Z,28.10
2018-01-11T09:32:38.541Z,30.30
2018-01-11T09:33:38.524Z,27.40
2018-01-11T09:34:38.512Z,27.20
2018-01-11T09:35:38.492Z,28.50
2018-01-11T09:36:38.482Z,27.70
2018-01-11T09:37:38.460Z,29.30
2018-01-11T09:38:38.442Z,30.50
2018-01-11T09:39:38.425Z,26.70
2018-01-11T09:40:38.409Z,27.20
2018-01-11T09:41:38.384Z,27.30
2018-01-11T09:42:38.371Z,26.70
2018-01-11T09:43:38.355Z,26.90
2018-01-11T09:44:38.345Z,26.70
2018-01-11T09:45:38.322Z,26.70
2018-01-11T09:46:38.312Z,28.00
2018-01-11T09:47:38.284Z,25.80
2018-01-11T09:48:38.272Z,24.20
2018-01-11T09:49:38.259Z,25.00
2018-01-11T09:50:38.239Z,25.10
2018-01-11T09:51:38.229Z,25.20
2018-01-11T09:52:38.212Z,25.70
2018-01-11T09:53:38.212Z,23.40
2018-01-11T09:54:38.198Z,24.00
2018-01-11T09:55:38.182Z,24.50
2018-01-11T09:56:38.162Z,24.40
2018-01-11T09:57:38.153Z,23.60
2018-01-11T09:58:38.144Z,29.60
2018-01-11T09:59:38.134Z,41.00
2018-01-11T10:00:38.130Z,32.30
2018-01-11T10:01:38.121Z,29.10
2018-01-11T10:02:38.098Z,27.20
2018-01-11T10:03:38.084Z,27.70
2018-01-11T10:04:38.081Z,31.60
2018-01-11T10:05:38.072Z,25.00
2018-01-11T10:06:38.059Z,24.30
2018-01-11T10:07:38.049Z,24.50
2018-01-11T10:08:38.040Z,25.50
2018-01-11T10:09:38.032Z,25.50
2018-01-11T10:10:38.027Z,25.00
2018-01-11T10:11:38.010Z,28.60
2018-01-11T10:12:38.005Z,27.50
2018-01-11T10:13:37.990Z,32.60
2018-01-11T10:14:37.979Z,27.80
2018-01-11T10:15:37.973Z,27.00
2018-01-11T10:16:37.960Z,27.10
2018-01-11T10:17:37.950Z,30.70
2018-01-11T10:18:37.945Z,27.20
2018-01-11T10:19:37.932Z,27.50
2018-01-11T10:20:37.919Z,27.00
2018-01-11T10:21:37.911Z,27.20
2018-01-11T10:22:37.901Z,26.90
2018-01-11T10:23:37.881Z,26.90
2018-01-11T10:24:37.869Z,27.00
2018-01-11T10:25:37.854Z,27.20
2018-01-11T10:26:37.843Z,26.70
2018-01-11T10:27:37.830Z,27.30
2018-01-11T10:28:37.821Z,26.90
2018-01-11T10:29:37.808Z,29.00
2018-01-11T10:30:37.788Z,29.30
2018-01-11T10:31:37.781Z,27.70
2018-01-11T10:32:37.763Z,78.60
2018-01-11T10:33:37.750Z,81.10
2018-01-11T10:34:37.729Z,42.40
2018-01-11T10:35:37.715Z,51.70
2018-01-11T10:36:37.700Z,58.60
2018-01-11T10:37:37.693Z,33.60
2018-01-11T10:38:37.674Z,28.60
2018-01-11T10:39:37.655Z,27.60
2018-01-11T10:40:37.639Z,27.00
2018-01-11T10:41:37.628Z,27.20
2018-01-11T10:42:37.610Z,27.90
2018-01-11T10:43:37.604Z,28.10
2018-01-11T10:44:37.581Z,27.70
2018-01-11T10:45:37.571Z,26.80
2018-01-11T10:46:37.552Z,26.60
2018-01-11T10:47:37.540Z,27.60
2018-01-11T10:48:37.523Z,27.10
2018-01-11T10:49:37.509Z,26.60
2018-01-11T10:50:37.489Z,26.10
2018-01-11T10:51:37.478Z,26.70
2018-01-11T10:52:37.460Z,26.00
2018-01-11T10:53:37.448Z,26.90
2018-01-11T10:54:37.426Z,26.40
2018-01-11T10:55:37.416Z,26.20
2018-01-11T10:56:37.396Z,25.20
2018-01-11T10:57:37.384Z,24.80
2018-01-11T10:58:37.368Z,25.60
2018-01-11T10:59:37.348Z,26.60
2018-01-11T11:00:37.334Z,26.40
2018-01-11T11:01:37.320Z,26.40
2018-01-11T11:02:37.300Z,27.60
2018-01-11T11:03:37.287Z,27.60
2018-01-11T11:04:37.275Z,26.40
2018-01-11T11:05:37.415Z,26.80
2018-01-11T11:06:37.236Z,27.40
2018-01-11T11:07:37.273Z,28.30
2018-01-11T11:08:37.210Z,27.20
2018-01-11T11:09:37.189Z,27.70
2018-01-11T11:10:37.184Z,29.20
2018-01-11T11:11:37.308Z,32.80
2018-01-11T11:12:37.141Z,30.70
2018-01-11T11:13:37.137Z,29.20
2018-01-11T11:14:37.110Z,27.70
2018-01-11T11:15:37.090Z,30.00
2018-01-11T11:16:37.072Z,29.30
2018-01-11T11:17:37.062Z,33.00
2018-01-11T11:18:37.040Z,29.40
2018-01-11T11:19:37.032Z,29.00
2018-01-11T11:20:37.011Z,31.60
2018-01-11T11:21:36.995Z,29.90
2018-01-11T11:22:36.979Z,31.30
2018-01-11T11:23:36.964Z,32.20
2018-01-11T11:24:36.956Z,31.10
2018-01-11T11:25:36.940Z,33.80
2018-01-11T11:26:36.913Z,37.40
2018-01-11T11:27:36.897Z,40.70
2018-01-11T11:28:36.880Z,34.10
2018-01-11T11:29:36.869Z,33.20
2018-01-11T11:30:36.849Z,34.40
2018-01-11T11:31:36.839Z,33.70
2018-01-11T11:32:36.821Z,41.10
2018-01-11T11:33:36.801Z,32.70
2018-01-11T11:34:36.788Z,33.80
2018-01-11T11:35:36.772Z,34.60
2018-01-11T11:36:36.754Z,32.10
2018-01-11T11:37:36.740Z,31.30
2018-01-11T11:38:36.720Z,30.70
2018-01-11T11:39:36.702Z,30.90
2018-01-11T11:40:36.687Z,30.90
2018-01-11T11:41:36.671Z,30.10
2018-01-11T11:42:36.652Z,29.80
2018-01-11T11:43:36.640Z,30.40
2018-01-11T11:44:36.623Z,29.60
2018-01-11T11:45:36.609Z,29.40
2018-01-11T11:46:36.585Z,29.70
2018-01-11T11:47:36.578Z,29.90
2018-01-11T11:48:36.551Z,28.80
2018-01-11T11:49:36.535Z,30.60
2018-01-11T11:50:36.528Z,34.70
2018-01-11T11:51:36.501Z,30.10
2018-01-11T11:52:36.487Z,32.50
2018-01-11T11:53:36.468Z,30.90
2018-01-11T11:54:36.459Z,30.00
2018-01-11T11:55:36.436Z,28.90
2018-01-11T11:56:36.420Z,28.80
2018-01-11T11:57:36.413Z,28.60
2018-01-11T11:58:36.391Z,30.30
2018-01-11T11:59:36.377Z,29.50
2018-01-11T12:00:36.349Z,29.00
2018-01-11T12:01:36.334Z,30.70
2018-01-11T12:02:36.319Z,29.40
2018-01-11T12:03:36.300Z,31.40
2018-01-11T12:04:36.287Z,28.50
2018-01-11T12:05:36.270Z,30.00
2018-01-11T12:06:36.252Z,28.40
2018-01-11T12:07:36.232Z,29.40
2018-01-11T12:08:36.223Z,29.30
2018-01-11T12:09:36.199Z,28.60
2018-01-11T12:10:36.194Z,29.80
2018-01-11T12:11:36.169Z,30.00
2018-01-11T12:12:36.152Z,30.80
2018-01-11T12:13:36.129Z,28.80
2018-01-11T12:14:36.119Z,28.40
2018-01-11T12:15:36.099Z,29.10
2018-01-11T12:16:36.099Z,28.60
2018-01-11T12:17:36.071Z,30.70
2018-01-11T12:18:36.055Z,30.80
2018-01-11T12:19:36.032Z,31.80
2018-01-11T12:20:36.023Z,28.80
2018-01-11T12:21:36.000Z,31.10
2018-01-11T12:22:35.986Z,29.00
2018-01-11T12:23:35.970Z,31.60
2018-01-11T12:24:35.952Z,30.40
2018-01-11T12:25:35.932Z,31.20
2018-01-11T12:26:35.917Z,27.60
2018-01-11T12:27:35.900Z,27.60
2018-01-11T12:28:35.881Z,28.90
2018-01-11T12:29:35.863Z,26.40
2018-01-11T12:30:35.844Z,28.30
2018-01-11T12:31:35.830Z,27.50
2018-01-11T12:32:35.807Z,26.30
2018-01-11T12:33:35.798Z,32.20
2018-01-11T12:34:35.783Z,28.40
2018-01-11T12:35:35.761Z,31.30
2018-01-11T12:36:35.741Z,27.00
2018-01-11T12:37:35.731Z,26.90
2018-01-11T12:38:35.711Z,26.80
2018-01-11T12:39:35.690Z,27.40
2018-01-11T12:40:35.672Z,27.40
2018-01-11T12:41:35.659Z,25.60
2018-01-11T12:42:35.650Z,27.20
2018-01-11T12:43:35.621Z,26.70
2018-01-11T12:44:35.607Z,26.30
2018-01-11T12:45:35.590Z,27.70
2018-01-11T12:46:35.578Z,27.50
2018-01-11T12:47:35.561Z,26.90
2018-01-11T12:48:35.541Z,28.60
2018-01-11T12:49:35.521Z,28.80
2018-01-11T12:50:35.514Z,28.00
2018-01-11T12:51:35.492Z,27.30
2018-01-11T12:52:35.471Z,29.20